sensor_id;sensor_type;location;lat;lon;timestamp;P1;durP1;ratioP1;P2;durP2;ratioP2
71626;SDS011;59475;52.464;13.590;2022-08-21T00:01:19;14.80;;;8.02;;
71626;SDS011;59475;52.464;13.590;2022-08-21T00:03:49;14.70;;;8.43;;
71626;SDS011;59475;52.464;13.590;2022-08-21T00:06:15;14.37;;;8.47;;
71626;SDS011;59475;52.464;13.590;2022-08-21T00:08:41;13.55;;;8.50;;
71626;SDS011;59475;52.464;13.590;2022-08-21T00:11:06;13.73;;;8.67;;
71626;SDS011;59475;52.464;13.590;2022-08-21T00:13:33;12.67;;;8.77;;
71626;SDS011;59475;52.464;13.590;2022-08-21T00:15:59;12.63;;;8.63;;
71626;SDS011;59475;52.464;13.590;2022-08-21T00:18:24;11.33;;;7.97;;
71626;SDS011;59475;52.464;13.590;2022-08-21T00:20:50;12.60;;;8.35;;
71626;SDS011;59475;52.464;13.590;2022-08-21T00:23:16;11.43;;;8.73;;
71626;SDS011;59475;52.464;13.590;2022-08-21T00:25:41;11.75;;;8.20;;
71626;SDS011;59475;52.464;13.590;2022-08-21T00:28:08;13.97;;;8.40;;
71626;SDS011;59475;52.464;13.590;2022-08-21T00:30:33;12.75;;;8.52;;
71626;SDS011;59475;52.464;13.590;2022-08-21T00:32:59;11.03;;;8.53;;
71626;SDS011;59475;52.464;13.590;2022-08-21T00:35:27;12.25;;;8.38;;
71626;SDS011;59475;52.464;13.590;2022-08-21T00:37:55;10.63;;;8.70;;
71626;SDS011;59475;52.464;13.590;2022-08-21T00:40:25;12.93;;;8.15;;
71626;SDS011;59475;52.464;13.590;2022-08-21T00:42:55;10.57;;;7.80;;
71626;SDS011;59475;52.464;13.590;2022-08-21T00:45:22;11.25;;;8.57;;
71626;SDS011;59475;52.464;13.590;2022-08-21T00:47:49;12.75;;;8.57;;
71626;SDS011;59475;52.464;13.590;2022-08-21T00:50:15;11.88;;;8.57;;
71626;SDS011;59475;52.464;13.590;2022-08-21T00:52:41;12.37;;;8.33;;
71626;SDS011;59475;52.464;13.590;2022-08-21T00:55:08;11.32;;;7.72;;
71626;SDS011;59475;52.464;13.590;2022-08-21T00:57:36;10.40;;;8.07;;
71626;SDS011;59475;52.464;13.590;2022-08-21T01:00:09;11.07;;;8.02;;
71626;SDS011;59475;52.464;13.590;2022-08-21T01:02:38;12.75;;;8.82;;
71626;SDS011;59475;52.464;13.590;2022-08-21T01:05:04;10.80;;;8.43;;
71626;SDS011;59475;52.464;13.590;2022-08-21T01:07:30;10.98;;;7.93;;
71626;SDS011;59475;52.464;13.590;2022-08-21T01:09:56;10.30;;;7.15;;
71626;SDS011;59475;52.464;13.590;2022-08-21T01:12:21;11.73;;;7.90;;
71626;SDS011;59475;52.464;13.590;2022-08-21T01:14:47;13.63;;;8.13;;
71626;SDS011;59475;52.464;13.590;2022-08-21T01:17:13;10.07;;;7.90;;
71626;SDS011;59475;52.464;13.590;2022-08-21T01:19:40;11.05;;;7.90;;
71626;SDS011;59475;52.464;13.590;2022-08-21T01:22:06;9.85;;;7.10;;
71626;SDS011;59475;52.464;13.590;2022-08-21T01:24:32;11.25;;;7.65;;
71626;SDS011;59475;52.464;13.590;2022-08-21T01:26:59;10.17;;;7.83;;
71626;SDS011;59475;52.464;13.590;2022-08-21T01:29:36;10.25;;;7.40;;
71626;SDS011;59475;52.464;13.590;2022-08-21T01:32:07;11.93;;;7.05;;
71626;SDS011;59475;52.464;13.590;2022-08-21T01:34:36;10.95;;;7.72;;
71626;SDS011;59475;52.464;13.590;2022-08-21T01:37:05;9.23;;;6.57;;
71626;SDS011;59475;52.464;13.590;2022-08-21T01:39:30;8.35;;;6.60;;
71626;SDS011;59475;52.464;13.590;2022-08-21T01:41:56;8.77;;;6.43;;
71626;SDS011;59475;52.464;13.590;2022-08-21T01:44:22;9.43;;;6.95;;
71626;SDS011;59475;52.464;13.590;2022-08-21T01:46:48;9.60;;;6.90;;
71626;SDS011;59475;52.464;13.590;2022-08-21T01:49:14;10.95;;;6.60;;
71626;SDS011;59475;52.464;13.590;2022-08-21T01:51:40;9.68;;;6.20;;
71626;SDS011;59475;52.464;13.590;2022-08-21T01:54:06;12.70;;;6.13;;
71626;SDS011;59475;52.464;13.590;2022-08-21T01:56:35;11.00;;;6.30;;
71626;SDS011;59475;52.464;13.590;2022-08-21T01:59:05;8.30;;;6.18;;
71626;SDS011;59475;52.464;13.590;2022-08-21T02:01:31;10.30;;;6.47;;
71626;SDS011;59475;52.464;13.590;2022-08-21T02:03:56;11.17;;;6.43;;
71626;SDS011;59475;52.464;13.590;2022-08-21T02:06:22;6.30;;;5.35;;
71626;SDS011;59475;52.464;13.590;2022-08-21T02:08:47;7.90;;;5.67;;
71626;SDS011;59475;52.464;13.590;2022-08-21T02:11:15;8.82;;;6.28;;
71626;SDS011;59475;52.464;13.590;2022-08-21T02:13:40;7.63;;;5.93;;
71626;SDS011;59475;52.464;13.590;2022-08-21T02:16:06;8.30;;;6.20;;
71626;SDS011;59475;52.464;13.590;2022-08-21T02:18:32;8.77;;;6.15;;
71626;SDS011;59475;52.464;13.590;2022-08-21T02:20:58;10.03;;;6.30;;
71626;SDS011;59475;52.464;13.590;2022-08-21T02:23:23;8.00;;;6.13;;
71626;SDS011;59475;52.464;13.590;2022-08-21T02:25:49;8.23;;;6.30;;
71626;SDS011;59475;52.464;13.590;2022-08-21T02:28:14;11.83;;;6.50;;
71626;SDS011;59475;52.464;13.590;2022-08-21T02:30:43;7.07;;;6.38;;
71626;SDS011;59475;52.464;13.590;2022-08-21T02:33:10;6.90;;;5.53;;
71626;SDS011;59475;52.464;13.590;2022-08-21T02:35:36;9.50;;;5.97;;
71626;SDS011;59475;52.464;13.590;2022-08-21T02:38:04;7.53;;;5.63;;
71626;SDS011;59475;52.464;13.590;2022-08-21T02:40:34;7.97;;;6.07;;
71626;SDS011;59475;52.464;13.590;2022-08-21T02:43:02;8.98;;;5.78;;
71626;SDS011;59475;52.464;13.590;2022-08-21T02:45:29;9.35;;;5.90;;
71626;SDS011;59475;52.464;13.590;2022-08-21T02:47:57;8.10;;;5.40;;
71626;SDS011;59475;52.464;13.590;2022-08-21T02:50:27;10.63;;;6.13;;
71626;SDS011;59475;52.464;13.590;2022-08-21T02:52:55;7.45;;;6.10;;
71626;SDS011;59475;52.464;13.590;2022-08-21T02:55:22;8.68;;;6.32;;
71626;SDS011;59475;52.464;13.590;2022-08-21T02:57:51;12.57;;;5.82;;
71626;SDS011;59475;52.464;13.590;2022-08-21T03:00:17;8.52;;;5.63;;
71626;SDS011;59475;52.464;13.590;2022-08-21T03:02:45;9.33;;;5.90;;
71626;SDS011;59475;52.464;13.590;2022-08-21T03:05:11;7.85;;;5.45;;
71626;SDS011;59475;52.464;13.590;2022-08-21T03:07:39;7.55;;;5.97;;
71626;SDS011;59475;52.464;13.590;2022-08-21T03:10:06;10.95;;;5.45;;
71626;SDS011;59475;52.464;13.590;2022-08-21T03:12:31;6.50;;;5.07;;
71626;SDS011;59475;52.464;13.590;2022-08-21T03:14:57;7.53;;;6.27;;
71626;SDS011;59475;52.464;13.590;2022-08-21T03:17:23;11.07;;;5.80;;
71626;SDS011;59475;52.464;13.590;2022-08-21T03:19:49;8.93;;;5.82;;
71626;SDS011;59475;52.464;13.590;2022-08-21T03:22:14;8.67;;;5.63;;
71626;SDS011;59475;52.464;13.590;2022-08-21T03:24:40;9.23;;;5.40;;
71626;SDS011;59475;52.464;13.590;2022-08-21T03:27:05;8.88;;;5.32;;
71626;SDS011;59475;52.464;13.590;2022-08-21T03:29:30;9.00;;;5.57;;
71626;SDS011;59475;52.464;13.590;2022-08-21T03:31:56;8.00;;;5.60;;
71626;SDS011;59475;52.464;13.590;2022-08-21T03:34:21;8.53;;;6.43;;
71626;SDS011;59475;52.464;13.590;2022-08-21T03:36:47;10.67;;;5.67;;
71626;SDS011;59475;52.464;13.590;2022-08-21T03:39:14;8.25;;;5.47;;
71626;SDS011;59475;52.464;13.590;2022-08-21T03:41:40;8.98;;;5.53;;
71626;SDS011;59475;52.464;13.590;2022-08-21T03:44:05;8.07;;;5.20;;
71626;SDS011;59475;52.464;13.590;2022-08-21T03:46:31;7.27;;;5.60;;
71626;SDS011;59475;52.464;13.590;2022-08-21T03:48:56;7.35;;;4.82;;
71626;SDS011;59475;52.464;13.590;2022-08-21T03:51:22;8.10;;;5.43;;
71626;SDS011;59475;52.464;13.590;2022-08-21T03:53:47;7.97;;;5.30;;
71626;SDS011;59475;52.464;13.590;2022-08-21T03:56:13;7.70;;;4.83;;
71626;SDS011;59475;52.464;13.590;2022-08-21T03:58:38;9.63;;;4.60;;
71626;SDS011;59475;52.464;13.590;2022-08-21T04:01:04;7.13;;;4.83;;
71626;SDS011;59475;52.464;13.590;2022-08-21T04:03:31;8.63;;;4.70;;
71626;SDS011;59475;52.464;13.590;2022-08-21T04:05:59;9.63;;;4.93;;
71626;SDS011;59475;52.464;13.590;2022-08-21T04:08:25;9.10;;;5.10;;
71626;SDS011;59475;52.464;13.590;2022-08-21T04:10:51;7.60;;;4.97;;
71626;SDS011;59475;52.464;13.590;2022-08-21T04:13:18;7.38;;;4.28;;
71626;SDS011;59475;52.464;13.590;2022-08-21T04:15:44;9.47;;;4.73;;
71626;SDS011;59475;52.464;13.590;2022-08-21T04:18:09;9.27;;;4.47;;
71626;SDS011;59475;52.464;13.590;2022-08-21T04:20:35;7.25;;;4.80;;
71626;SDS011;59475;52.464;13.590;2022-08-21T04:23:01;7.57;;;5.00;;
71626;SDS011;59475;52.464;13.590;2022-08-21T04:25:27;7.50;;;4.93;;
71626;SDS011;59475;52.464;13.590;2022-08-21T04:27:53;6.95;;;4.30;;
71626;SDS011;59475;52.464;13.590;2022-08-21T04:30:19;7.43;;;4.47;;
71626;SDS011;59475;52.464;13.590;2022-08-21T04:32:46;6.60;;;4.50;;
71626;SDS011;59475;52.464;13.590;2022-08-21T04:35:13;7.22;;;4.75;;
71626;SDS011;59475;52.464;13.590;2022-08-21T04:37:40;10.27;;;4.55;;
71626;SDS011;59475;52.464;13.590;2022-08-21T04:40:06;10.37;;;4.40;;
71626;SDS011;59475;52.464;13.590;2022-08-21T04:42:40;7.15;;;4.15;;
71626;SDS011;59475;52.464;13.590;2022-08-21T04:45:14;8.45;;;4.68;;
71626;SDS011;59475;52.464;13.590;2022-08-21T04:47:46;7.93;;;4.93;;
71626;SDS011;59475;52.464;13.590;2022-08-21T04:50:13;9.27;;;4.43;;
71626;SDS011;59475;52.464;13.590;2022-08-21T04:52:39;6.82;;;4.38;;
71626;SDS011;59475;52.464;13.590;2022-08-21T04:55:04;5.93;;;4.40;;
71626;SDS011;59475;52.464;13.590;2022-08-21T04:57:30;6.37;;;4.47;;
71626;SDS011;59475;52.464;13.590;2022-08-21T04:59:55;6.70;;;4.93;;
71626;SDS011;59475;52.464;13.590;2022-08-21T05:02:21;6.30;;;3.90;;
71626;SDS011;59475;52.464;13.590;2022-08-21T05:04:49;9.10;;;4.37;;
71626;SDS011;59475;52.464;13.590;2022-08-21T05:07:19;7.03;;;4.67;;
71626;SDS011;59475;52.464;13.590;2022-08-21T05:09:47;6.53;;;4.75;;
71626;SDS011;59475;52.464;13.590;2022-08-21T05:12:13;7.38;;;4.20;;
71626;SDS011;59475;52.464;13.590;2022-08-21T05:14:39;10.07;;;4.70;;
71626;SDS011;59475;52.464;13.590;2022-08-21T05:17:04;10.77;;;4.45;;
71626;SDS011;59475;52.464;13.590;2022-08-21T05:19:30;8.00;;;4.07;;
71626;SDS011;59475;52.464;13.590;2022-08-21T05:21:55;7.20;;;4.57;;
71626;SDS011;59475;52.464;13.590;2022-08-21T05:24:22;8.50;;;3.78;;
71626;SDS011;59475;52.464;13.590;2022-08-21T05:26:47;6.43;;;3.47;;
71626;SDS011;59475;52.464;13.590;2022-08-21T05:29:13;5.90;;;3.75;;
71626;SDS011;59475;52.464;13.590;2022-08-21T05:31:40;7.50;;;3.30;;
71626;SDS011;59475;52.464;13.590;2022-08-21T05:34:06;6.25;;;3.70;;
71626;SDS011;59475;52.464;13.590;2022-08-21T05:36:31;11.00;;;3.80;;
71626;SDS011;59475;52.464;13.590;2022-08-21T05:38:57;6.70;;;4.00;;
71626;SDS011;59475;52.464;13.590;2022-08-21T05:41:22;6.53;;;4.03;;
71626;SDS011;59475;52.464;13.590;2022-08-21T05:43:47;8.60;;;3.60;;
71626;SDS011;59475;52.464;13.590;2022-08-21T05:46:13;4.65;;;2.75;;
71626;SDS011;59475;52.464;13.590;2022-08-21T05:48:38;9.67;;;3.10;;
71626;SDS011;59475;52.464;13.590;2022-08-21T05:51:05;5.90;;;3.40;;
71626;SDS011;59475;52.464;13.590;2022-08-21T05:53:32;4.07;;;3.40;;
71626;SDS011;59475;52.464;13.590;2022-08-21T05:55:58;9.75;;;3.30;;
71626;SDS011;59475;52.464;13.590;2022-08-21T05:58:23;6.60;;;3.20;;
71626;SDS011;59475;52.464;13.590;2022-08-21T06:00:49;10.97;;;3.13;;
71626;SDS011;59475;52.464;13.590;2022-08-21T06:03:17;8.85;;;3.75;;
71626;SDS011;59475;52.464;13.590;2022-08-21T06:05:47;4.53;;;3.22;;
71626;SDS011;59475;52.464;13.590;2022-08-21T06:08:14;6.43;;;3.27;;
71626;SDS011;59475;52.464;13.590;2022-08-21T06:10:41;5.65;;;3.15;;
71626;SDS011;59475;52.464;13.590;2022-08-21T06:13:06;4.47;;;2.92;;
71626;SDS011;59475;52.464;13.590;2022-08-21T06:15:32;5.67;;;3.00;;
71626;SDS011;59475;52.464;13.590;2022-08-21T06:17:57;3.77;;;2.43;;
71626;SDS011;59475;52.464;13.590;2022-08-21T06:20:23;6.03;;;2.80;;
71626;SDS011;59475;52.464;13.590;2022-08-21T06:22:48;5.50;;;2.40;;
71626;SDS011;59475;52.464;13.590;2022-08-21T06:25:14;8.82;;;2.67;;
71626;SDS011;59475;52.464;13.590;2022-08-21T06:27:39;9.50;;;3.63;;
71626;SDS011;59475;52.464;13.590;2022-08-21T06:30:05;5.30;;;3.20;;
71626;SDS011;59475;52.464;13.590;2022-08-21T06:32:32;6.07;;;2.42;;
71626;SDS011;59475;52.464;13.590;2022-08-21T06:34:58;3.72;;;2.25;;
71626;SDS011;59475;52.464;13.590;2022-08-21T06:37:23;5.87;;;2.17;;
71626;SDS011;59475;52.464;13.590;2022-08-21T06:39:48;5.33;;;2.50;;
71626;SDS011;59475;52.464;13.590;2022-08-21T06:42:14;3.93;;;2.40;;
71626;SDS011;59475;52.464;13.590;2022-08-21T06:44:40;3.97;;;2.22;;
71626;SDS011;59475;52.464;13.590;2022-08-21T06:47:05;3.63;;;2.20;;
71626;SDS011;59475;52.464;13.590;2022-08-21T06:49:31;4.53;;;2.50;;
71626;SDS011;59475;52.464;13.590;2022-08-21T06:51:56;2.50;;;2.07;;
71626;SDS011;59475;52.464;13.590;2022-08-21T06:54:21;4.73;;;1.93;;
71626;SDS011;59475;52.464;13.590;2022-08-21T06:56:47;5.93;;;2.00;;
71626;SDS011;59475;52.464;13.590;2022-08-21T06:59:12;4.43;;;2.07;;
71626;SDS011;59475;52.464;13.590;2022-08-21T07:01:38;3.20;;;2.03;;
71626;SDS011;59475;52.464;13.590;2022-08-21T07:04:04;3.10;;;2.03;;
71626;SDS011;59475;52.464;13.590;2022-08-21T07:06:29;2.30;;;1.77;;
71626;SDS011;59475;52.464;13.590;2022-08-21T07:08:55;3.53;;;2.10;;
71626;SDS011;59475;52.464;13.590;2022-08-21T07:11:21;5.87;;;2.50;;
71626;SDS011;59475;52.464;13.590;2022-08-21T07:13:48;4.65;;;2.30;;
71626;SDS011;59475;52.464;13.590;2022-08-21T07:16:17;4.82;;;1.80;;
71626;SDS011;59475;52.464;13.590;2022-08-21T07:18:43;5.20;;;2.05;;
71626;SDS011;59475;52.464;13.590;2022-08-21T07:21:09;5.00;;;2.10;;
71626;SDS011;59475;52.464;13.590;2022-08-21T07:23:37;4.60;;;1.70;;
71626;SDS011;59475;52.464;13.590;2022-08-21T07:26:05;6.28;;;2.10;;
71626;SDS011;59475;52.464;13.590;2022-08-21T07:28:31;5.97;;;1.90;;
71626;SDS011;59475;52.464;13.590;2022-08-21T07:30:58;4.05;;;1.70;;
71626;SDS011;59475;52.464;13.590;2022-08-21T07:33:25;6.07;;;1.95;;
71626;SDS011;59475;52.464;13.590;2022-08-21T07:35:51;3.80;;;1.67;;
71626;SDS011;59475;52.464;13.590;2022-08-21T07:38:17;6.23;;;1.70;;
71626;SDS011;59475;52.464;13.590;2022-08-21T07:40:43;3.10;;;1.52;;
71626;SDS011;59475;52.464;13.590;2022-08-21T07:43:10;4.05;;;1.90;;
71626;SDS011;59475;52.464;13.590;2022-08-21T07:45:36;5.18;;;1.65;;
71626;SDS011;59475;52.464;13.590;2022-08-21T07:48:01;5.23;;;1.70;;
71626;SDS011;59475;52.464;13.590;2022-08-21T07:50:27;5.50;;;1.80;;
71626;SDS011;59475;52.464;13.590;2022-08-21T07:52:52;4.53;;;1.67;;
71626;SDS011;59475;52.464;13.590;2022-08-21T07:55:18;8.33;;;1.67;;
71626;SDS011;59475;52.464;13.590;2022-08-21T07:57:45;4.72;;;1.75;;
71626;SDS011;59475;52.464;13.590;2022-08-21T08:00:12;4.03;;;1.50;;
71626;SDS011;59475;52.464;13.590;2022-08-21T08:02:43;5.13;;;1.40;;
71626;SDS011;59475;52.464;13.590;2022-08-21T08:05:10;6.20;;;1.90;;
71626;SDS011;59475;52.464;13.590;2022-08-21T08:07:37;6.72;;;1.75;;
71626;SDS011;59475;52.464;13.590;2022-08-21T08:10:03;4.22;;;1.60;;
71626;SDS011;59475;52.464;13.590;2022-08-21T08:12:32;4.27;;;1.53;;
71626;SDS011;59475;52.464;13.590;2022-08-21T08:14:59;4.90;;;1.48;;
71626;SDS011;59475;52.464;13.590;2022-08-21T08:17:26;4.63;;;1.65;;
71626;SDS011;59475;52.464;13.590;2022-08-21T08:19:52;3.72;;;1.35;;
71626;SDS011;59475;52.464;13.590;2022-08-21T08:22:18;3.83;;;1.60;;
71626;SDS011;59475;52.464;13.590;2022-08-21T08:24:47;3.23;;;1.40;;
71626;SDS011;59475;52.464;13.590;2022-08-21T08:27:13;4.85;;;1.52;;
71626;SDS011;59475;52.464;13.590;2022-08-21T08:29:39;3.05;;;1.60;;
71626;SDS011;59475;52.464;13.590;2022-08-21T08:32:05;4.03;;;1.70;;
71626;SDS011;59475;52.464;13.590;2022-08-21T08:34:32;4.18;;;1.58;;
71626;SDS011;59475;52.464;13.590;2022-08-21T08:36:58;2.83;;;1.27;;
71626;SDS011;59475;52.464;13.590;2022-08-21T08:39:23;2.73;;;1.57;;
71626;SDS011;59475;52.464;13.590;2022-08-21T08:41:50;5.60;;;1.30;;
71626;SDS011;59475;52.464;13.590;2022-08-21T08:44:24;1.65;;;1.23;;
71626;SDS011;59475;52.464;13.590;2022-08-21T08:46:50;4.23;;;1.50;;
71626;SDS011;59475;52.464;13.590;2022-08-21T08:49:20;4.45;;;1.65;;
71626;SDS011;59475;52.464;13.590;2022-08-21T08:54:35;3.88;;;1.55;;
71626;SDS011;59475;52.464;13.590;2022-08-21T08:57:10;3.65;;;1.42;;
71626;SDS011;59475;52.464;13.590;2022-08-21T08:59:46;3.13;;;1.60;;
71626;SDS011;59475;52.464;13.590;2022-08-21T09:02:15;6.20;;;1.60;;
71626;SDS011;59475;52.464;13.590;2022-08-21T09:04:41;4.50;;;1.40;;
71626;SDS011;59475;52.464;13.590;2022-08-21T09:18:36;3.30;;;1.47;;
71626;SDS011;59475;52.464;13.590;2022-08-21T09:23:40;2.67;;;1.30;;
71626;SDS011;59475;52.464;13.590;2022-08-21T09:26:16;3.80;;;1.40;;
71626;SDS011;59475;52.464;13.590;2022-08-21T09:28:44;3.08;;;1.10;;
71626;SDS011;59475;52.464;13.590;2022-08-21T09:34:06;4.95;;;1.50;;
71626;SDS011;59475;52.464;13.590;2022-08-21T09:39:05;4.03;;;1.30;;
71626;SDS011;59475;52.464;13.590;2022-08-21T09:41:33;4.75;;;1.60;;
71626;SDS011;59475;52.464;13.590;2022-08-21T09:44:00;3.92;;;1.50;;
71626;SDS011;59475;52.464;13.590;2022-08-21T09:46:27;3.38;;;1.50;;
71626;SDS011;59475;52.464;13.590;2022-08-21T09:48:57;4.47;;;1.43;;
71626;SDS011;59475;52.464;13.590;2022-08-21T09:51:29;4.55;;;1.38;;
71626;SDS011;59475;52.464;13.590;2022-08-21T09:53:57;2.50;;;1.23;;
71626;SDS011;59475;52.464;13.590;2022-08-21T09:59:26;2.92;;;1.45;;
71626;SDS011;59475;52.464;13.590;2022-08-21T10:01:59;1.50;;;1.20;;
71626;SDS011;59475;52.464;13.590;2022-08-21T10:04:33;4.28;;;1.50;;
71626;SDS011;59475;52.464;13.590;2022-08-21T10:07:13;6.57;;;1.60;;
71626;SDS011;59475;52.464;13.590;2022-08-21T10:09:40;4.78;;;1.40;;
71626;SDS011;59475;52.464;13.590;2022-08-21T10:12:15;3.70;;;1.40;;
71626;SDS011;59475;52.464;13.590;2022-08-21T10:15:02;5.10;;;1.60;;
71626;SDS011;59475;52.464;13.590;2022-08-21T10:20:20;4.38;;;1.58;;
71626;SDS011;59475;52.464;13.590;2022-08-21T10:25:31;3.80;;;1.90;;
71626;SDS011;59475;52.464;13.590;2022-08-21T10:30:51;2.63;;;1.13;;
71626;SDS011;59475;52.464;13.590;2022-08-21T10:33:28;3.88;;;1.52;;
71626;SDS011;59475;52.464;13.590;2022-08-21T10:36:12;5.22;;;1.50;;
71626;SDS011;59475;52.464;13.590;2022-08-21T10:44:12;3.85;;;1.55;;
71626;SDS011;59475;52.464;13.590;2022-08-21T10:49:40;3.42;;;1.20;;
71626;SDS011;59475;52.464;13.590;2022-08-21T10:52:33;4.45;;;1.40;;
71626;SDS011;59475;52.464;13.590;2022-08-21T10:55:30;6.00;;;1.60;;
71626;SDS011;59475;52.464;13.590;2022-08-21T10:57:59;5.95;;;1.70;;
71626;SDS011;59475;52.464;13.590;2022-08-21T11:00:30;6.45;;;1.90;;
71626;SDS011;59475;52.464;13.590;2022-08-21T11:05:50;3.80;;;1.40;;
71626;SDS011;59475;52.464;13.590;2022-08-21T11:08:22;4.63;;;1.60;;
71626;SDS011;59475;52.464;13.590;2022-08-21T11:11:08;2.92;;;1.33;;
71626;SDS011;59475;52.464;13.590;2022-08-21T11:13:48;4.22;;;1.40;;
71626;SDS011;59475;52.464;13.590;2022-08-21T11:16:26;2.28;;;1.23;;
71626;SDS011;59475;52.464;13.590;2022-08-21T11:19:04;3.80;;;1.50;;
71626;SDS011;59475;52.464;13.590;2022-08-21T11:21:53;6.30;;;1.50;;
71626;SDS011;59475;52.464;13.590;2022-08-21T11:26:51;4.50;;;1.53;;
71626;SDS011;59475;52.464;13.590;2022-08-21T11:29:24;4.05;;;1.60;;
71626;SDS011;59475;52.464;13.590;2022-08-21T11:35:05;3.05;;;1.50;;
71626;SDS011;59475;52.464;13.590;2022-08-21T11:43:09;4.80;;;1.60;;
71626;SDS011;59475;52.464;13.590;2022-08-21T11:46:11;3.90;;;1.50;;
71626;SDS011;59475;52.464;13.590;2022-08-21T11:51:43;3.97;;;1.60;;
71626;SDS011;59475;52.464;13.590;2022-08-21T11:54:20;2.20;;;1.30;;
71626;SDS011;59475;52.464;13.590;2022-08-21T11:56:59;6.95;;;1.75;;
71626;SDS011;59475;52.464;13.590;2022-08-21T11:59:31;6.55;;;1.67;;
71626;SDS011;59475;52.464;13.590;2022-08-21T12:02:10;3.47;;;1.40;;
71626;SDS011;59475;52.464;13.590;2022-08-21T12:05:23;2.90;;;1.40;;
71626;SDS011;59475;52.464;13.590;2022-08-21T12:10:04;5.50;;;1.75;;
71626;SDS011;59475;52.464;13.590;2022-08-21T12:12:33;4.45;;;1.77;;
71626;SDS011;59475;52.464;13.590;2022-08-21T12:15:06;3.83;;;1.40;;
71626;SDS011;59475;52.464;13.590;2022-08-21T12:17:40;4.50;;;1.60;;
71626;SDS011;59475;52.464;13.590;2022-08-21T12:25:37;3.35;;;1.48;;
71626;SDS011;59475;52.464;13.590;2022-08-21T12:28:10;3.65;;;1.90;;
71626;SDS011;59475;52.464;13.590;2022-08-21T12:30:40;5.68;;;1.60;;
71626;SDS011;59475;52.464;13.590;2022-08-21T12:36:05;2.58;;;1.60;;
71626;SDS011;59475;52.464;13.590;2022-08-21T12:38:55;3.08;;;1.58;;
71626;SDS011;59475;52.464;13.590;2022-08-21T12:41:44;3.88;;;1.75;;
71626;SDS011;59475;52.464;13.590;2022-08-21T12:44:14;4.45;;;1.50;;
71626;SDS011;59475;52.464;13.590;2022-08-21T12:46:48;2.13;;;1.30;;
71626;SDS011;59475;52.464;13.590;2022-08-21T12:49:18;4.30;;;1.88;;
71626;SDS011;59475;52.464;13.590;2022-08-21T12:51:55;5.43;;;1.73;;
71626;SDS011;59475;52.464;13.590;2022-08-21T12:54:29;3.85;;;1.13;;
71626;SDS011;59475;52.464;13.590;2022-08-21T12:57:02;3.58;;;1.30;;
71626;SDS011;59475;52.464;13.590;2022-08-21T12:59:29;3.73;;;1.47;;
71626;SDS011;59475;52.464;13.590;2022-08-21T13:01:55;4.50;;;1.30;;
71626;SDS011;59475;52.464;13.590;2022-08-21T13:04:26;2.38;;;1.27;;
71626;SDS011;59475;52.464;13.590;2022-08-21T13:07:13;4.33;;;1.57;;
71626;SDS011;59475;52.464;13.590;2022-08-21T13:09:51;4.05;;;1.15;;
71626;SDS011;59475;52.464;13.590;2022-08-21T13:12:18;3.65;;;1.52;;
71626;SDS011;59475;52.464;13.590;2022-08-21T13:14:46;2.90;;;1.25;;
71626;SDS011;59475;52.464;13.590;2022-08-21T13:17:14;3.97;;;1.15;;
71626;SDS011;59475;52.464;13.590;2022-08-21T13:19:42;3.47;;;1.20;;
71626;SDS011;59475;52.464;13.590;2022-08-21T13:22:17;3.60;;;1.40;;
71626;SDS011;59475;52.464;13.590;2022-08-21T13:24:42;1.63;;;1.02;;
71626;SDS011;59475;52.464;13.590;2022-08-21T13:27:17;3.97;;;1.20;;
71626;SDS011;59475;52.464;13.590;2022-08-21T13:29:47;1.87;;;0.90;;
71626;SDS011;59475;52.464;13.590;2022-08-21T13:32:19;3.45;;;1.38;;
71626;SDS011;59475;52.464;13.590;2022-08-21T13:34:50;1.67;;;1.20;;
71626;SDS011;59475;52.464;13.590;2022-08-21T13:37:16;2.40;;;1.48;;
71626;SDS011;59475;52.464;13.590;2022-08-21T13:39:47;3.10;;;1.30;;
71626;SDS011;59475;52.464;13.590;2022-08-21T13:42:16;2.65;;;1.10;;
71626;SDS011;59475;52.464;13.590;2022-08-21T13:44:43;3.90;;;1.23;;
71626;SDS011;59475;52.464;13.590;2022-08-21T13:47:12;2.33;;;1.25;;
71626;SDS011;59475;52.464;13.590;2022-08-21T13:49:40;3.85;;;1.10;;
71626;SDS011;59475;52.464;13.590;2022-08-21T13:52:21;1.75;;;1.00;;
71626;SDS011;59475;52.464;13.590;2022-08-21T13:54:56;1.67;;;1.10;;
71626;SDS011;59475;52.464;13.590;2022-08-21T13:57:25;2.30;;;1.00;;
71626;SDS011;59475;52.464;13.590;2022-08-21T13:59:53;2.60;;;1.10;;
71626;SDS011;59475;52.464;13.590;2022-08-21T14:02:46;2.60;;;0.88;;
71626;SDS011;59475;52.464;13.590;2022-08-21T14:05:15;2.60;;;1.00;;
71626;SDS011;59475;52.464;13.590;2022-08-21T14:07:50;1.90;;;1.13;;
71626;SDS011;59475;52.464;13.590;2022-08-21T14:10:21;1.77;;;0.90;;
71626;SDS011;59475;52.464;13.590;2022-08-21T14:12:52;1.85;;;0.77;;
71626;SDS011;59475;52.464;13.590;2022-08-21T14:15:24;2.97;;;1.30;;
71626;SDS011;59475;52.464;13.590;2022-08-21T14:17:53;1.40;;;0.90;;
71626;SDS011;59475;52.464;13.590;2022-08-21T14:20:30;2.60;;;1.07;;
71626;SDS011;59475;52.464;13.590;2022-08-21T14:22:58;2.78;;;1.08;;
71626;SDS011;59475;52.464;13.590;2022-08-21T14:32:49;3.30;;;1.40;;
71626;SDS011;59475;52.464;13.590;2022-08-21T14:35:14;2.73;;;1.40;;
71626;SDS011;59475;52.464;13.590;2022-08-21T14:37:42;1.65;;;1.10;;
71626;SDS011;59475;52.464;13.590;2022-08-21T14:40:09;2.47;;;1.10;;
71626;SDS011;59475;52.464;13.590;2022-08-21T14:42:35;2.97;;;0.98;;
71626;SDS011;59475;52.464;13.590;2022-08-21T14:45:13;2.30;;;1.13;;
71626;SDS011;59475;52.464;13.590;2022-08-21T14:47:40;6.57;;;0.98;;
71626;SDS011;59475;52.464;13.590;2022-08-21T14:50:07;2.38;;;1.10;;
71626;SDS011;59475;52.464;13.590;2022-08-21T14:52:33;2.63;;;1.27;;
71626;SDS011;59475;52.464;13.590;2022-08-21T14:54:59;3.50;;;1.08;;
71626;SDS011;59475;52.464;13.590;2022-08-21T14:57:24;6.20;;;1.33;;
71626;SDS011;59475;52.464;13.590;2022-08-21T14:59:52;3.40;;;1.15;;
71626;SDS011;59475;52.464;13.590;2022-08-21T15:02:17;3.67;;;1.30;;
71626;SDS011;59475;52.464;13.590;2022-08-21T15:04:43;2.73;;;1.40;;
71626;SDS011;59475;52.464;13.590;2022-08-21T15:07:08;2.13;;;1.00;;
71626;SDS011;59475;52.464;13.590;2022-08-21T15:09:33;3.67;;;1.60;;
71626;SDS011;59475;52.464;13.590;2022-08-21T15:11:59;2.30;;;1.25;;
71626;SDS011;59475;52.464;13.590;2022-08-21T15:14:27;2.83;;;1.47;;
71626;SDS011;59475;52.464;13.590;2022-08-21T15:16:54;3.42;;;1.48;;
71626;SDS011;59475;52.464;13.590;2022-08-21T15:19:20;2.75;;;1.40;;
71626;SDS011;59475;52.464;13.590;2022-08-21T15:21:45;2.57;;;1.33;;
71626;SDS011;59475;52.464;13.590;2022-08-21T15:24:11;3.97;;;1.40;;
71626;SDS011;59475;52.464;13.590;2022-08-21T15:26:36;3.65;;;1.42;;
71626;SDS011;59475;52.464;13.590;2022-08-21T15:29:02;3.70;;;1.37;;
71626;SDS011;59475;52.464;13.590;2022-08-21T15:31:29;4.00;;;1.17;;
71626;SDS011;59475;52.464;13.590;2022-08-21T15:33:54;4.37;;;1.43;;
71626;SDS011;59475;52.464;13.590;2022-08-21T15:36:20;2.37;;;1.20;;
71626;SDS011;59475;52.464;13.590;2022-08-21T15:38:45;2.73;;;1.40;;
71626;SDS011;59475;52.464;13.590;2022-08-21T15:41:11;2.30;;;1.10;;
71626;SDS011;59475;52.464;13.590;2022-08-21T15:43:46;4.50;;;1.50;;
71626;SDS011;59475;52.464;13.590;2022-08-21T15:46:15;3.63;;;1.33;;
71626;SDS011;59475;52.464;13.590;2022-08-21T15:48:42;3.88;;;1.55;;
71626;SDS011;59475;52.464;13.590;2022-08-21T15:51:09;5.17;;;1.50;;
71626;SDS011;59475;52.464;13.590;2022-08-21T15:53:35;2.83;;;1.33;;
71626;SDS011;59475;52.464;13.590;2022-08-21T15:56:03;3.90;;;1.45;;
71626;SDS011;59475;52.464;13.590;2022-08-21T15:58:30;4.97;;;1.52;;